sensor_id;sensor_type;location;lat;lon;timestamp;pressure;altitude;pressure_sealevel;temperature;humidity
24892;BME280;12954;50.688;10.908;2023-04-26T00:00:03;95509.75;;;3.41;49.12
24892;BME280;12954;50.688;10.908;2023-04-26T00:02:35;95513.94;;;3.37;49.36
24892;BME280;12954;50.688;10.908;2023-04-26T00:05:04;95514.50;;;3.39;49.26
24892;BME280;12954;50.688;10.908;2023-04-26T00:07:35;95521.94;;;3.37;49.51
24892;BME280;12954;50.688;10.908;2023-04-26T00:10:06;95491.25;;;3.22;49.52
24892;BME280;12954;50.688;10.908;2023-04-26T00:12:34;95512.50;;;3.46;49.44
24892;BME280;12954;50.688;10.908;2023-04-26T00:15:06;95519.94;;;3.44;49.44
24892;BME280;12954;50.688;10.908;2023-04-26T00:17:35;95521.56;;;3.45;49.70
24892;BME280;12954;50.688;10.908;2023-04-26T00:20:05;95529.00;;;3.43;49.73
24892;BME280;12954;50.688;10.908;2023-04-26T00:22:36;95452.13;;;3.00;49.69
24892;BME280;12954;50.688;10.908;2023-04-26T00:25:05;95483.53;;;3.09;49.60
24892;BME280;12954;50.688;10.908;2023-04-26T00:27:33;95524.78;;;3.47;49.65
24892;BME280;12954;50.688;10.908;2023-04-26T00:30:02;95521.09;;;3.48;49.89
24892;BME280;12954;50.688;10.908;2023-04-26T00:32:32;95530.69;;;3.49;49.76
24892;BME280;12954;50.688;10.908;2023-04-26T00:35:02;95539.28;;;3.51;49.97
24892;BME280;12954;50.688;10.908;2023-04-26T00:37:31;95538.69;;;3.49;50.01
24892;BME280;12954;50.688;10.908;2023-04-26T00:39:59;95536.03;;;3.49;49.95
24892;BME280;12954;50.688;10.908;2023-04-26T00:42:28;95479.56;;;3.12;49.81
24892;BME280;12954;50.688;10.908;2023-04-26T00:44:56;95537.09;;;3.48;50.06
24892;BME280;12954;50.688;10.908;2023-04-26T00:47:26;95541.63;;;3.47;49.75
24892;BME280;12954;50.688;10.908;2023-04-26T00:49:58;95545.56;;;3.45;49.77
24892;BME280;12954;50.688;10.908;2023-04-26T00:52:27;95535.94;;;3.44;50.04
24892;BME280;12954;50.688;10.908;2023-04-26T00:54:56;95540.44;;;3.43;50.07
24892;BME280;12954;50.688;10.908;2023-04-26T00:57:24;95519.41;;;3.30;50.13
24892;BME280;12954;50.688;10.908;2023-04-26T00:59:53;95538.41;;;3.33;50.28
24892;BME280;12954;50.688;10.908;2023-04-26T01:02:21;95502.06;;;3.16;50.29
24892;BME280;12954;50.688;10.908;2023-04-26T01:04:50;95533.63;;;3.36;50.18
24892;BME280;12954;50.688;10.908;2023-04-26T01:07:20;95508.16;;;3.16;50.34
24892;BME280;12954;50.688;10.908;2023-04-26T01:09:48;95530.41;;;3.33;50.22
24892;BME280;12954;50.688;10.908;2023-04-26T01:12:18;95536.53;;;3.34;50.32
24892;BME280;12954;50.688;10.908;2023-04-26T01:14:46;95532.00;;;3.34;50.36
24892;BME280;12954;50.688;10.908;2023-04-26T01:17:15;95534.13;;;3.32;50.17
24892;BME280;12954;50.688;10.908;2023-04-26T01:19:46;95532.72;;;3.30;50.35
24892;BME280;12954;50.688;10.908;2023-04-26T01:22:15;95539.56;;;3.26;50.38
24892;BME280;12954;50.688;10.908;2023-04-26T01:24:47;95534.22;;;3.26;50.48
24892;BME280;12954;50.688;10.908;2023-04-26T01:27:17;95537.63;;;3.21;50.34
24892;BME280;12954;50.688;10.908;2023-04-26T01:29:45;95484.25;;;2.82;50.52
24892;BME280;12954;50.688;10.908;2023-04-26T01:32:13;95444.56;;;2.57;50.46
24892;BME280;12954;50.688;10.908;2023-04-26T01:34:42;95516.81;;;2.95;50.57
24892;BME280;12954;50.688;10.908;2023-04-26T01:37:10;95534.63;;;3.06;50.71
24892;BME280;12954;50.688;10.908;2023-04-26T01:39:39;95536.72;;;3.04;50.80
24892;BME280;12954;50.688;10.908;2023-04-26T01:42:08;95531.03;;;3.01;50.63
24892;BME280;12954;50.688;10.908;2023-04-26T01:44:37;95547.50;;;2.98;50.56
24892;BME280;12954;50.688;10.908;2023-04-26T01:47:06;95539.63;;;2.91;50.90
24892;BME280;12954;50.688;10.908;2023-04-26T01:49:35;95517.97;;;2.76;50.94
24892;BME280;12954;50.688;10.908;2023-04-26T01:52:03;95535.09;;;2.80;50.94
24892;BME280;12954;50.688;10.908;2023-04-26T01:54:32;95530.91;;;2.84;51.09
24892;BME280;12954;50.688;10.908;2023-04-26T01:57:00;95535.94;;;2.81;50.95
24892;BME280;12954;50.688;10.908;2023-04-26T01:59:31;95543.22;;;2.73;51.17
24892;BME280;12954;50.688;10.908;2023-04-26T02:01:59;95532.56;;;2.62;51.40
24892;BME280;12954;50.688;10.908;2023-04-26T02:04:28;95540.19;;;2.70;51.26
24892;BME280;12954;50.688;10.908;2023-04-26T02:06:56;95530.81;;;2.67;51.31
24892;BME280;12954;50.688;10.908;2023-04-26T02:09:24;95528.84;;;2.63;51.32
24892;BME280;12954;50.688;10.908;2023-04-26T02:11:53;95529.31;;;2.60;51.37
24892;BME280;12954;50.688;10.908;2023-04-26T02:14:21;95526.06;;;2.58;51.40
24892;BME280;12954;50.688;10.908;2023-04-26T02:16:51;95520.41;;;2.54;51.54
24892;BME280;12954;50.688;10.908;2023-04-26T02:19:19;95531.53;;;2.51;51.84
24892;BME280;12954;50.688;10.908;2023-04-26T02:21:52;95537.88;;;2.50;51.66
24892;BME280;12954;50.688;10.908;2023-04-26T02:24:21;95532.66;;;2.44;51.76
24892;BME280;12954;50.688;10.908;2023-04-26T02:26:50;95503.13;;;2.22;51.53
24892;BME280;12954;50.688;10.908;2023-04-26T02:29:19;95524.44;;;2.34;52.03
24892;BME280;12954;50.688;10.908;2023-04-26T02:32:09;95529.88;;;2.27;51.97
24892;BME280;12954;50.688;10.908;2023-04-26T02:34:37;95525.22;;;2.22;52.04
24892;BME280;12954;50.688;10.908;2023-04-26T02:37:06;95525.09;;;2.17;52.45
24892;BME280;12954;50.688;10.908;2023-04-26T02:39:35;95525.09;;;2.17;52.12
24892;BME280;12954;50.688;10.908;2023-04-26T02:42:08;95525.53;;;2.14;52.35
24892;BME280;12954;50.688;10.908;2023-04-26T02:44:36;95522.31;;;2.12;52.44
24892;BME280;12954;50.688;10.908;2023-04-26T02:47:07;95501.56;;;2.03;52.34
24892;BME280;12954;50.688;10.908;2023-04-26T02:49:37;95520.09;;;2.09;52.35
24892;BME280;12954;50.688;10.908;2023-04-26T02:52:05;95448.91;;;1.52;52.69
24892;BME280;12954;50.688;10.908;2023-04-26T02:54:34;95523.41;;;1.93;52.73
24892;BME280;12954;50.688;10.908;2023-04-26T02:57:03;95522.38;;;1.94;52.94
24892;BME280;12954;50.688;10.908;2023-04-26T02:59:31;95526.31;;;1.92;52.88
24892;BME280;12954;50.688;10.908;2023-04-26T03:02:00;95523.84;;;1.90;52.92
24892;BME280;12954;50.688;10.908;2023-04-26T03:04:31;95524.47;;;1.92;52.84
24892;BME280;12954;50.688;10.908;2023-04-26T03:07:03;95438.81;;;1.31;53.13
24892;BME280;12954;50.688;10.908;2023-04-26T03:09:32;95527.22;;;1.86;53.03
24892;BME280;12954;50.688;10.908;2023-04-26T03:12:00;95524.72;;;1.84;53.27
24892;BME280;12954;50.688;10.908;2023-04-26T03:14:29;95502.41;;;1.74;53.17
24892;BME280;12954;50.688;10.908;2023-04-26T03:16:57;95520.69;;;1.82;53.06
24892;BME280;12954;50.688;10.908;2023-04-26T03:19:26;95523.59;;;1.80;53.14
24892;BME280;12954;50.688;10.908;2023-04-26T03:21:54;95525.66;;;1.78;53.04
24892;BME280;12954;50.688;10.908;2023-04-26T03:24:24;95483.13;;;1.48;53.25
24892;BME280;12954;50.688;10.908;2023-04-26T03:26:53;95513.72;;;1.69;53.39
24892;BME280;12954;50.688;10.908;2023-04-26T03:29:21;95434.09;;;1.15;53.47
24892;BME280;12954;50.688;10.908;2023-04-26T03:31:49;95520.88;;;1.69;53.30
24892;BME280;12954;50.688;10.908;2023-04-26T03:34:18;95519.03;;;1.69;53.25
24892;BME280;12954;50.688;10.908;2023-04-26T03:36:46;95528.03;;;1.68;52.94
24892;BME280;12954;50.688;10.908;2023-04-26T03:39:15;95525.84;;;1.65;53.35
24892;BME280;12954;50.688;10.908;2023-04-26T03:41:45;95523.88;;;1.60;53.52
24892;BME280;12954;50.688;10.908;2023-04-26T03:44:13;95528.00;;;1.56;53.39
24892;BME280;12954;50.688;10.908;2023-04-26T03:46:42;95448.47;;;0.95;53.57
24892;BME280;12954;50.688;10.908;2023-04-26T03:49:10;95507.00;;;1.37;53.50
24892;BME280;12954;50.688;10.908;2023-04-26T03:51:39;95551.56;;;1.53;53.70
24892;BME280;12954;50.688;10.908;2023-04-26T03:54:07;95541.16;;;1.51;53.56
24892;BME280;12954;50.688;10.908;2023-04-26T03:56:36;95556.28;;;1.51;53.54
24892;BME280;12954;50.688;10.908;2023-04-26T03:59:07;95547.25;;;1.52;53.49
24892;BME280;12954;50.688;10.908;2023-04-26T04:01:36;95547.75;;;1.49;53.54
24892;BME280;12954;50.688;10.908;2023-04-26T04:04:04;95553.25;;;1.47;53.73
24892;BME280;12954;50.688;10.908;2023-04-26T04:06:33;95533.56;;;1.37;53.82
24892;BME280;12954;50.688;10.908;2023-04-26T04:09:01;95553.50;;;1.46;53.78
24892;BME280;12954;50.688;10.908;2023-04-26T04:11:31;95551.63;;;1.46;53.85
24892;BME280;12954;50.688;10.908;2023-04-26T04:14:00;95554.53;;;1.45;53.83
24892;BME280;12954;50.688;10.908;2023-04-26T04:16:30;95547.88;;;1.36;54.10
24892;BME280;12954;50.688;10.908;2023-04-26T04:18:58;95565.91;;;1.34;54.04
24892;BME280;12954;50.688;10.908;2023-04-26T04:21:27;95551.28;;;1.25;54.31
24892;BME280;12954;50.688;10.908;2023-04-26T04:23:55;95561.31;;;1.23;54.44
24892;BME280;12954;50.688;10.908;2023-04-26T04:26:23;95553.56;;;1.21;54.59
24892;BME280;12954;50.688;10.908;2023-04-26T04:28:52;95554.41;;;1.22;54.69
24892;BME280;12954;50.688;10.908;2023-04-26T04:31:21;95546.13;;;1.12;54.58
24892;BME280;12954;50.688;10.908;2023-04-26T04:33:51;95555.41;;;1.21;54.66
24892;BME280;12954;50.688;10.908;2023-04-26T04:36:19;95573.00;;;1.22;54.62
24892;BME280;12954;50.688;10.908;2023-04-26T04:38:48;95570.91;;;1.24;54.67
24892;BME280;12954;50.688;10.908;2023-04-26T04:41:17;95571.50;;;1.26;54.89
24892;BME280;12954;50.688;10.908;2023-04-26T04:43:46;95577.44;;;1.28;54.76
24892;BME280;12954;50.688;10.908;2023-04-26T04:46:14;95576.38;;;1.29;54.84
24892;BME280;12954;50.688;10.908;2023-04-26T04:48:43;95567.94;;;1.32;54.79
24892;BME280;12954;50.688;10.908;2023-04-26T04:51:12;95552.19;;;1.19;54.82
24892;BME280;12954;50.688;10.908;2023-04-26T04:53:41;95580.34;;;1.38;54.82
24892;BME280;12954;50.688;10.908;2023-04-26T04:56:09;95578.88;;;1.42;54.74
24892;BME280;12954;50.688;10.908;2023-04-26T04:58:37;95532.53;;;1.20;54.91
24892;BME280;12954;50.688;10.908;2023-04-26T05:01:06;95563.38;;;1.39;54.66
24892;BME280;12954;50.688;10.908;2023-04-26T05:03:34;95549.06;;;1.40;54.85
24892;BME280;12954;50.688;10.908;2023-04-26T05:06:03;95581.09;;;1.63;54.74
24892;BME280;12954;50.688;10.908;2023-04-26T05:08:34;95536.94;;;1.44;54.94
24892;BME280;12954;50.688;10.908;2023-04-26T05:11:03;95583.81;;;1.75;54.83
24892;BME280;12954;50.688;10.908;2023-04-26T05:13:31;95574.09;;;1.80;54.70
24892;BME280;12954;50.688;10.908;2023-04-26T05:15:59;95583.25;;;1.84;54.75
24892;BME280;12954;50.688;10.908;2023-04-26T05:18:28;95580.00;;;1.82;54.76
24892;BME280;12954;50.688;10.908;2023-04-26T05:20:56;95585.13;;;1.84;55.10
24892;BME280;12954;50.688;10.908;2023-04-26T05:23:25;95584.91;;;1.85;55.08
24892;BME280;12954;50.688;10.908;2023-04-26T05:25:55;95588.16;;;1.87;55.11
24892;BME280;12954;50.688;10.908;2023-04-26T05:28:23;95534.13;;;1.57;55.10
24892;BME280;12954;50.688;10.908;2023-04-26T05:30:52;95586.66;;;1.91;55.40
24892;BME280;12954;50.688;10.908;2023-04-26T05:33:21;95582.75;;;1.94;55.19
24892;BME280;12954;50.688;10.908;2023-04-26T05:35:50;95592.41;;;2.06;55.29
24892;BME280;12954;50.688;10.908;2023-04-26T05:38:20;95596.81;;;2.12;55.32
24892;BME280;12954;50.688;10.908;2023-04-26T05:40:49;95544.50;;;1.77;55.17
24892;BME280;12954;50.688;10.908;2023-04-26T05:43:19;95605.41;;;2.26;55.08
24892;BME280;12954;50.688;10.908;2023-04-26T05:45:50;95606.25;;;2.38;55.00
24892;BME280;12954;50.688;10.908;2023-04-26T05:48:19;95610.91;;;2.43;54.86
24892;BME280;12954;50.688;10.908;2023-04-26T05:50:48;95609.41;;;2.47;54.98
24892;BME280;12954;50.688;10.908;2023-04-26T05:53:17;95615.91;;;2.51;54.89
24892;BME280;12954;50.688;10.908;2023-04-26T05:55:46;95621.47;;;2.61;54.77
24892;BME280;12954;50.688;10.908;2023-04-26T05:58:14;95591.34;;;2.49;54.44
24892;BME280;12954;50.688;10.908;2023-04-26T06:00:44;95611.16;;;2.64;54.48
24892;BME280;12954;50.688;10.908;2023-04-26T06:03:13;95628.31;;;2.68;54.48
24892;BME280;12954;50.688;10.908;2023-04-26T17:19:53;95645.47;;;7.39;36.69
24892;BME280;12954;50.688;10.908;2023-04-26T17:22:22;95646.78;;;7.36;36.71
24892;BME280;12954;50.688;10.908;2023-04-26T17:24:51;95640.34;;;7.37;36.81
24892;BME280;12954;50.688;10.908;2023-04-26T17:27:19;95642.50;;;7.40;36.84
24892;BME280;12954;50.688;10.908;2023-04-26T17:29:48;95613.69;;;7.25;36.79
24892;BME280;12954;50.688;10.908;2023-04-26T17:32:16;95653.75;;;7.37;36.74
24892;BME280;12954;50.688;10.908;2023-04-26T17:34:45;95634.88;;;7.22;36.91
24892;BME280;12954;50.688;10.908;2023-04-26T17:37:15;95649.63;;;7.24;37.18
24892;BME280;12954;50.688;10.908;2023-04-26T17:39:44;95652.06;;;7.21;37.42
24892;BME280;12954;50.688;10.908;2023-04-26T17:42:13;95647.72;;;7.15;37.31
24892;BME280;12954;50.688;10.908;2023-04-26T17:44:43;95650.31;;;7.10;37.37
24892;BME280;12954;50.688;10.908;2023-04-26T17:47:13;95658.88;;;7.07;37.42
24892;BME280;12954;50.688;10.908;2023-04-26T17:49:43;95664.22;;;7.02;37.67
24892;BME280;12954;50.688;10.908;2023-04-26T17:52:12;95663.66;;;7.00;37.59
24892;BME280;12954;50.688;10.908;2023-04-26T17:54:42;95667.09;;;6.95;37.89
24892;BME280;12954;50.688;10.908;2023-04-26T17:57:10;95660.06;;;6.89;37.68
24892;BME280;12954;50.688;10.908;2023-04-26T17:59:38;95656.19;;;6.75;38.17
24892;BME280;12954;50.688;10.908;2023-04-26T18:02:07;95676.91;;;6.80;38.10
24892;BME280;12954;50.688;10.908;2023-04-26T18:04:35;95656.53;;;6.57;38.28
24892;BME280;12954;50.688;10.908;2023-04-26T18:07:04;95678.56;;;6.59;38.59
24892;BME280;12954;50.688;10.908;2023-04-26T18:09:33;95676.63;;;6.54;38.64
24892;BME280;12954;50.688;10.908;2023-04-26T18:12:04;95674.72;;;6.50;38.89
24892;BME280;12954;50.688;10.908;2023-04-26T18:14:32;95678.13;;;6.45;38.87
24892;BME280;12954;50.688;10.908;2023-04-26T18:17:02;95686.94;;;6.41;39.29
24892;BME280;12954;50.688;10.908;2023-04-26T18:19:31;95685.50;;;6.33;39.24
24892;BME280;12954;50.688;10.908;2023-04-26T18:21:59;95686.69;;;6.21;39.62
24892;BME280;12954;50.688;10.908;2023-04-26T18:24:27;95692.97;;;6.09;39.64
24892;BME280;12954;50.688;10.908;2023-04-26T18:26:57;95694.69;;;5.99;39.90
24892;BME280;12954;50.688;10.908;2023-04-26T18:29:29;95675.13;;;5.77;39.82
24892;BME280;12954;50.688;10.908;2023-04-26T18:31:58;95697.97;;;5.84;39.95
24892;BME280;12954;50.688;10.908;2023-04-26T18:34:27;95707.78;;;5.79;40.07
24892;BME280;12954;50.688;10.908;2023-04-26T18:36:56;95686.66;;;5.61;40.39
